Time;durP1;ratioP1;P1;durP2;ratioP2;P2;SDS_P1;SDS_P2;PMS_P1;PMS_P2;Temp;Humidity;BMP_temperature;BMP_pressure;BME280_temperature;BME280_humidity;BME280_pressure;Samples;Min_cycle;Max_cycle;Signal;HPM_P1;HPM_P2
2023/12/26 00:01:31;;;;;;;0.20;0.20;;;;;;;8.40;86.94;96759.97;5032113;28;20042;-74
2023/12/26 00:03:59;;;;;;;0.22;0.22;;;;;;;8.39;86.84;96742.38;5032194;28;20045;-74
2023/12/26 00:06:26;;;;;;;0.13;0.13;;;;;;;8.38;87.10;96737.25;5026933;28;20045;-73
2023/12/26 00:08:54;;;;;;;0.28;0.28;;;;;;;8.36;87.13;96734.81;5032257;28;20045;-74
2023/12/26 00:11:22;;;;;;;0.30;0.30;;;;;;;8.34;87.25;96738.69;5031584;28;20041;-74
2023/12/26 00:13:49;;;;;;;0.20;0.20;;;;;;;8.36;87.43;96731.31;5031378;28;20112;-73
2023/12/26 00:16:17;;;;;;;0.20;0.20;;;;;;;8.42;86.86;96736.63;5031503;28;20474;-74
2023/12/26 00:18:46;;;;;;;0.30;0.30;;;;;;;8.44;87.02;96725.81;5031372;28;20037;-74
2023/12/26 00:21:14;;;;;;;0.30;0.30;;;;;;;8.40;87.07;96717.44;5031642;28;20445;-75
2023/12/26 00:23:42;;;;;;;0.43;0.43;;;;;;;8.45;86.91;96714.16;5031817;28;20034;-73
2023/12/26 00:26:09;;;;;;;0.15;0.15;;;;;;;8.37;87.12;96712.50;5031649;28;20069;-74
2023/12/26 00:28:37;;;;;;;0.20;0.20;;;;;;;8.38;86.55;96705.34;5030772;28;20120;-74
2023/12/26 00:31:05;;;;;;;0.28;0.28;;;;;;;8.39;86.45;96717.63;5030316;28;20053;-74
2023/12/26 00:33:33;;;;;;;0.30;0.30;;;;;;;8.42;86.53;96699.41;5030662;28;20386;-75
2023/12/26 00:36:02;;;;;;;0.22;0.22;;;;;;;8.41;86.86;96712.91;5030773;28;20050;-74
2023/12/26 00:38:30;;;;;;;0.20;0.20;;;;;;;8.38;86.95;96694.72;5030639;28;20409;-74
2023/12/26 00:40:57;;;;;;;0.30;0.30;;;;;;;8.41;86.87;96711.06;5030506;28;20053;-74
2023/12/26 00:43:25;;;;;;;0.30;0.30;;;;;;;8.37;87.24;96717.84;5031525;28;20042;-75
2023/12/26 00:45:52;;;;;;;0.30;0.30;;;;;;;8.37;87.25;96699.22;5030918;28;20125;-74
2023/12/26 00:48:21;;;;;;;0.30;0.30;;;;;;;8.28;87.39;96695.09;5031561;28;20043;-74
2023/12/26 00:50:49;;;;;;;0.30;0.30;;;;;;;8.34;87.46;96704.13;5031532;28;20405;-74
2023/12/26 00:53:18;;;;;;;0.20;0.20;;;;;;;8.30;87.52;96710.84;5030352;28;20038;-74
2023/12/26 00:55:45;;;;;;;0.28;0.28;;;;;;;8.34;87.44;96707.59;5031777;28;20333;-74
2023/12/26 00:58:13;;;;;;;0.20;0.20;;;;;;;8.33;87.46;96691.84;5030116;28;20053;-75
2023/12/26 01:00:40;;;;;;;0.20;0.20;;;;;;;8.27;87.89;96696.09;5030031;28;20136;-74
2023/12/26 01:03:09;;;;;;;0.30;0.30;;;;;;;8.27;87.62;96705.91;5031245;28;20154;-74
2023/12/26 01:05:37;;;;;;;0.25;0.25;;;;;;;8.23;88.22;96670.13;5033772;28;20037;-74
2023/12/26 01:08:08;;;;;;;0.10;0.10;;;;;;;8.26;88.02;96691.81;5031870;28;20073;-76
2023/12/26 01:10:41;;;;;;;0.30;0.30;;;;;;;8.24;88.04;96688.53;5024833;28;20033;-74
2023/12/26 01:13:08;;;;;;;0.20;0.20;;;;;;;8.26;88.07;96693.66;5029656;28;20049;-74
2023/12/26 01:15:36;;;;;;;0.30;0.30;;;;;;;8.26;88.10;96689.16;5029859;28;20077;-74
2023/12/26 01:18:04;;;;;;;0.20;0.20;;;;;;;8.22;88.16;96693.22;5031084;28;20073;-74
2023/12/26 01:20:32;;;;;;;0.30;0.30;;;;;;;8.24;87.92;96685.06;5030813;28;20493;-74
2023/12/26 01:23:00;;;;;;;0.15;0.15;;;;;;;8.25;88.04;96713.28;5031116;28;20040;-73
2023/12/26 01:25:28;;;;;;;0.38;0.38;;;;;;;8.28;87.80;96697.75;5026644;28;20073;-74
2023/12/26 01:27:56;;;;;;;0.40;0.40;;;;;;;8.25;88.08;96702.63;5029643;28;20069;-73
2023/12/26 01:30:24;;;;;;;0.20;0.20;;;;;;;8.30;87.58;96700.22;5030911;28;20120;-73
2023/12/26 01:32:52;;;;;;;0.30;0.30;;;;;;;8.31;87.64;96696.50;5030425;28;20069;-74
2023/12/26 01:35:20;;;;;;;0.20;0.20;;;;;;;8.28;87.86;96700.41;5031803;28;20052;-75
2023/12/26 01:37:47;;;;;;;0.40;0.40;;;;;;;8.22;88.20;96693.22;5031611;28;20037;-73
2023/12/26 01:40:15;;;;;;;0.13;0.13;;;;;;;8.23;88.43;96707.34;5031083;28;20096;-74
2023/12/26 01:42:45;;;;;;;0.13;0.13;;;;;;;8.22;88.25;96706.50;5030825;28;20046;-74
2023/12/26 01:45:14;;;;;;;0.32;0.32;;;;;;;8.23;88.62;96684.22;5030985;28;20136;-73
2023/12/26 01:47:44;;;;;;;0.10;0.10;;;;;;;8.17;88.84;96690.38;5031022;28;20120;-74
2023/12/26 01:50:13;;;;;;;0.20;0.20;;;;;;;8.19;88.87;96693.66;5029516;28;20054;-73
2023/12/26 01:52:41;;;;;;;0.38;0.38;;;;;;;8.15;89.08;96654.38;5029709;28;20037;-73
2023/12/26 01:55:11;;;;;;;0.22;0.22;;;;;;;8.14;89.15;96688.09;5025534;28;20485;-74
2023/12/26 01:57:40;;;;;;;0.22;0.22;;;;;;;8.14;89.11;96679.31;5027111;28;20056;-74
2023/12/26 02:00:08;;;;;;;0.32;0.32;;;;;;;8.11;89.48;96680.53;5030850;28;20409;-74
2023/12/26 02:02:43;;;;;;;0.30;0.30;;;;;;;8.17;88.93;96687.72;5035101;28;20037;-74
2023/12/26 02:05:12;;;;;;;0.30;0.30;;;;;;;8.10;89.07;96674.38;5033892;28;20083;-74
2023/12/26 02:07:40;;;;;;;0.35;0.35;;;;;;;8.12;89.01;96679.50;5037239;28;20443;-73
2023/12/26 02:10:08;;;;;;;0.25;0.25;;;;;;;8.09;89.01;96686.06;5032495;28;20050;-74
2023/12/26 02:12:35;;;;;;;0.32;0.32;;;;;;;8.13;88.86;96685.66;5036327;28;20042;-74
2023/12/26 02:15:04;;;;;;;0.20;0.20;;;;;;;8.15;89.04;96692.41;5033873;28;20523;-74
2023/12/26 02:17:32;;;;;;;0.25;0.25;;;;;;;8.15;88.91;96691.59;5032841;28;20072;-74
2023/12/26 02:20:02;;;;;;;0.30;0.30;;;;;;;8.19;88.78;96680.38;5038446;28;20111;-74
2023/12/26 02:22:31;;;;;;;0.30;0.30;;;;;;;8.17;88.64;96684.22;5031672;28;20045;-74
2023/12/26 02:25:00;;;;;;;0.30;0.30;;;;;;;8.17;88.68;96673.59;5036927;28;20048;-75
2023/12/26 02:27:31;;;;;;;0.30;0.30;;;;;;;8.17;88.63;96666.44;5034051;28;20056;-74
2023/12/26 02:29:59;;;;;;;0.20;0.20;;;;;;;8.20;88.48;96662.56;5034073;28;20496;-75
2023/12/26 02:32:28;;;;;;;0.10;0.10;;;;;;;8.21;88.19;96665.00;5034486;28;20409;-74
2023/12/26 02:35:00;;;;;;;0.20;0.20;;;;;;;8.22;88.05;96661.31;5034359;28;20041;-74
2023/12/26 02:37:27;;;;;;;0.20;0.20;;;;;;;8.23;87.92;96660.31;5032748;28;20076;-74
2023/12/26 02:39:55;;;;;;;0.10;0.10;;;;;;;8.32;87.90;96671.59;5030269;28;20124;-74
2023/12/26 02:42:29;;;;;;;0.20;0.20;;;;;;;8.29;87.61;96667.50;5032779;28;20053;-75
2023/12/26 02:44:57;;;;;;;0.17;0.17;;;;;;;8.28;87.67;96683.63;5029019;28;20038;-74
2023/12/26 02:47:24;;;;;;;0.20;0.20;;;;;;;8.25;87.64;96671.56;5033190;28;20041;-74
2023/12/26 02:49:52;;;;;;;0.22;0.22;;;;;;;8.21;88.01;96654.38;5030300;28;20034;-73
2023/12/26 02:52:20;;;;;;;0.30;0.30;;;;;;;8.19;88.14;96677.69;5040609;28;20045;-74
2023/12/26 02:54:47;;;;;;;0.20;0.20;;;;;;;8.18;88.15;96659.28;5031330;28;20081;-75
2023/12/26 02:57:15;;;;;;;0.55;0.55;;;;;;;8.19;87.96;96655.63;5031153;28;20041;-74
2023/12/26 02:59:44;;;;;;;0.20;0.20;;;;;;;8.22;87.92;96676.47;5032025;28;20038;-73
2023/12/26 03:02:12;;;;;;;0.20;0.20;;;;;;;8.19;88.01;96666.25;5026800;28;20058;-74
2023/12/26 03:04:39;;;;;;;0.15;0.15;;;;;;;8.17;87.95;96666.44;5031725;28;20075;-73
2023/12/26 03:07:07;;;;;;;0.20;0.20;;;;;;;8.16;88.04;96667.47;5033089;28;20121;-73
2023/12/26 03:09:34;;;;;;;0.28;0.28;;;;;;;8.18;88.05;96653.97;5029322;28;20104;-74
2023/12/26 03:12:02;;;;;;;0.30;0.30;;;;;;;8.26;87.70;96669.72;5035124;28;20045;-74
2023/12/26 03:14:30;;;;;;;0.30;0.30;;;;;;;8.25;87.20;96654.78;5028958;28;20045;-75
2023/12/26 03:16:58;;;;;;;0.20;0.20;;;;;;;8.21;87.56;96659.69;5023943;28;20087;-74
2023/12/26 03:19:28;;;;;;;0.32;0.32;;;;;;;8.19;87.48;96664.41;5027112;28;20045;-74
2023/12/26 03:21:56;;;;;;;0.30;0.30;;;;;;;8.23;87.31;96660.31;5031559;28;20412;-75
2023/12/26 03:24:23;;;;;;;0.30;0.30;;;;;;;8.23;87.21;96668.28;5031579;28;20045;-74
2023/12/26 03:26:51;;;;;;;0.20;0.20;;;;;;;8.33;86.90;96670.56;5033196;28;20116;-74
2023/12/26 03:29:20;;;;;;;0.10;0.10;;;;;;;8.24;86.92;96653.97;5032644;28;20489;-74
2023/12/26 03:31:47;;;;;;;0.30;0.30;;;;;;;8.27;87.13;96669.53;5032185;28;20052;-74
2023/12/26 03:34:16;;;;;;;0.20;0.20;;;;;;;8.31;86.81;96653.97;5024995;28;20033;-73
2023/12/26 03:36:44;;;;;;;0.30;0.30;;;;;;;8.27;86.88;96647.44;5031472;28;20045;-74
2023/12/26 03:39:12;;;;;;;0.30;0.30;;;;;;;8.25;87.49;96660.13;5031075;28;20055;-73
2023/12/26 03:41:40;;;;;;;0.25;0.25;;;;;;;8.19;87.76;96651.13;5032543;28;20041;-73
2023/12/26 03:44:08;;;;;;;0.25;0.25;;;;;;;8.19;87.82;96656.44;5030702;28;20041;-73
2023/12/26 03:46:35;;;;;;;0.30;0.30;;;;;;;8.17;87.96;96657.66;5031032;28;20075;-74
2023/12/26 03:49:03;;;;;;;0.20;0.20;;;;;;;8.26;87.46;96656.44;5030965;28;20045;-74
2023/12/26 03:51:32;;;;;;;0.30;0.30;;;;;;;8.23;87.33;96656.84;5024594;28;20408;-74
2023/12/26 03:53:59;;;;;;;0.40;0.32;;;;;;;8.26;86.84;96640.47;5030752;28;20500;-73
2023/12/26 03:56:30;;;;;;;0.30;0.30;;;;;;;8.23;86.21;96646.19;5032016;28;20037;-74
2023/12/26 03:58:57;;;;;;;0.35;0.35;;;;;;;8.24;85.94;96647.84;5030798;28;20049;-73
2023/12/26 04:01:25;;;;;;;0.20;0.20;;;;;;;8.24;86.11;96655.81;5024662;28;20053;-74
2023/12/26 04:03:53;;;;;;;0.20;0.20;;;;;;;8.26;85.26;96657.25;5030474;28;20046;-74
2023/12/26 04:06:21;;;;;;;0.30;0.30;;;;;;;8.28;85.23;96644.59;5031938;28;20039;-73
2023/12/26 04:08:51;;;;;;;0.20;0.20;;;;;;;8.28;84.99;96644.59;5031077;28;20439;-74
2023/12/26 04:11:18;;;;;;;0.22;0.22;;;;;;;8.30;84.96;96634.56;5031766;28;20500;-74
2023/12/26 04:13:47;;;;;;;0.32;0.32;;;;;;;8.33;84.95;96646.66;5030574;28;20061;-74
2023/12/26 04:16:14;;;;;;;0.25;0.25;;;;;;;8.33;84.75;96655.44;5030513;28;20467;-74
2023/12/26 04:18:42;;;;;;;0.25;0.25;;;;;;;8.38;84.30;96642.38;5029555;28;20056;-73
2023/12/26 04:21:10;;;;;;;0.20;0.20;;;;;;;8.37;83.67;96632.75;5040695;28;20050;-73
2023/12/26 04:23:39;;;;;;;0.20;0.20;;;;;;;8.35;83.98;96642.78;5030363;28;20068;-73
2023/12/26 04:26:08;;;;;;;0.20;0.20;;;;;;;8.34;83.78;96649.09;5026909;28;20041;-75
2023/12/26 04:28:36;;;;;;;0.30;0.30;;;;;;;8.32;83.75;96643.16;5023725;28;20041;-74
2023/12/26 04:31:04;;;;;;;0.25;0.25;;;;;;;8.34;83.95;96654.41;5030717;28;20104;-73
2023/12/26 04:33:32;;;;;;;0.20;0.20;;;;;;;8.31;84.23;96652.16;5030137;28;20045;-73
2023/12/26 04:36:00;;;;;;;0.20;0.20;;;;;;;8.29;83.98;96648.06;5028265;28;20038;-74
2023/12/26 04:38:28;;;;;;;0.20;0.20;;;;;;;8.27;84.14;96652.75;5030312;28;20072;-73
2023/12/26 04:40:56;;;;;;;0.45;0.45;;;;;;;8.21;84.58;96657.03;5029882;28;20120;-73
2023/12/26 04:43:25;;;;;;;0.30;0.30;;;;;;;8.17;84.55;96660.31;5029833;28;20079;-75
2023/12/26 04:45:52;;;;;;;0.20;0.20;;;;;;;8.18;84.73;96670.75;5030662;28;20100;-74
2023/12/26 04:48:20;;;;;;;0.20;0.20;;;;;;;8.21;84.31;96659.69;5029957;28;20053;-74
2023/12/26 04:50:48;;;;;;;0.32;0.32;;;;;;;8.17;84.38;96669.09;5031320;28;20045;-74
2023/12/26 04:53:16;;;;;;;0.28;0.28;;;;;;;8.20;83.97;96655.38;5027642;28;20050;-74
2023/12/26 04:55:44;;;;;;;0.20;0.20;;;;;;;8.17;83.98;96665.63;5023317;28;20038;-74
2023/12/26 04:58:12;;;;;;;0.35;0.35;;;;;;;8.17;83.88;96670.94;5032266;28;20056;-74
2023/12/26 05:00:43;;;;;;;0.32;0.32;;;;;;;8.10;84.19;96678.88;5031044;28;20099;-74
2023/12/26 05:03:12;;;;;;;0.30;0.30;;;;;;;8.07;84.29;96696.06;5029333;28;20048;-75
2023/12/26 05:05:40;;;;;;;0.32;0.32;;;;;;;8.09;83.60;96695.88;5028321;28;20501;-74
2023/12/26 05:08:07;;;;;;;0.30;0.30;;;;;;;8.07;83.38;96688.09;5029980;28;20053;-73
2023/12/26 05:10:35;;;;;;;0.30;0.30;;;;;;;8.09;82.96;96675.44;5029514;28;20045;-73
2023/12/26 05:13:03;;;;;;;0.20;0.20;;;;;;;8.16;82.21;96687.91;5029933;28;20050;-73
2023/12/26 05:15:31;;;;;;;0.20;0.20;;;;;;;8.12;82.21;96674.19;5030641;28;20053;-73
2023/12/26 05:18:01;;;;;;;0.20;0.20;;;;;;;8.16;82.29;96688.72;5029742;28;20041;-74
2023/12/26 05:20:29;;;;;;;0.30;0.30;;;;;;;8.20;82.01;96691.81;5029342;28;20053;-73
2023/12/26 05:22:59;;;;;;;0.30;0.30;;;;;;;8.13;82.31;96689.13;5029502;28;20413;-73
2023/12/26 05:25:27;;;;;;;0.20;0.20;;;;;;;8.19;82.05;96701.63;5025351;28;20132;-73
2023/12/26 05:27:55;;;;;;;0.25;0.25;;;;;;;8.18;82.01;96702.63;5029576;28;20060;-73
2023/12/26 05:30:23;;;;;;;0.30;0.30;;;;;;;8.08;81.68;96723.47;5029070;28;20057;-73
2023/12/26 05:32:51;;;;;;;0.30;0.30;;;;;;;8.05;81.35;96702.59;5031396;28;20041;-73
2023/12/26 05:35:22;;;;;;;0.22;0.22;;;;;;;8.06;80.81;96683.00;5033278;28;20033;-73
2023/12/26 05:37:50;;;;;;;0.20;0.20;;;;;;;8.08;81.12;96707.53;5033581;28;20111;-73
2023/12/26 05:40:18;;;;;;;0.25;0.25;;;;;;;8.06;80.89;96698.94;5033282;28;20081;-73
2023/12/26 05:42:47;;;;;;;0.17;0.17;;;;;;;8.09;80.46;96696.69;5033374;28;20145;-73
2023/12/26 05:45:16;;;;;;;0.13;0.13;;;;;;;8.07;80.55;96711.19;5033266;28;20041;-73
2023/12/26 05:47:45;;;;;;;0.22;0.22;;;;;;;8.05;80.12;96699.94;5033232;28;20548;-73
2023/12/26 05:50:17;;;;;;;0.20;0.20;;;;;;;8.07;79.75;96708.53;5033015;28;20040;-76
2023/12/26 05:52:46;;;;;;;0.20;0.20;;;;;;;8.06;80.18;96712.22;5033305;28;20103;-73
2023/12/26 05:55:13;;;;;;;0.15;0.15;;;;;;;8.06;79.73;96704.25;5033093;28;20049;-73
2023/12/26 05:57:41;;;;;;;0.10;0.10;;;;;;;8.03;79.96;96731.22;5031732;28;20045;-74
2023/12/26 06:00:10;;;;;;;0.20;0.20;;;;;;;8.06;79.83;96717.53;5034681;28;20196;-74
2023/12/26 06:02:42;;;;;;;0.30;0.30;;;;;;;8.04;79.75;96736.31;5034636;28;20045;-73
2023/12/26 06:05:10;;;;;;;0.25;0.25;;;;;;;8.00;79.72;96723.63;5033021;28;20119;-73
2023/12/26 06:07:38;;;;;;;0.35;0.35;;;;;;;7.99;79.86;96743.28;5040589;28;20059;-73
2023/12/26 06:10:07;;;;;;;0.20;0.20;;;;;;;8.00;79.87;96694.41;5033227;28;20420;-74
2023/12/26 06:12:37;;;;;;;0.10;0.10;;;;;;;7.97;80.16;96753.28;5032925;28;20182;-75
2023/12/26 06:15:05;;;;;;;0.20;0.20;;;;;;;7.99;79.95;96762.66;5032884;28;20053;-74
2023/12/26 06:17:34;;;;;;;0.40;0.40;;;;;;;7.97;79.80;96771.88;5032722;28;20046;-75
2023/12/26 06:20:03;;;;;;;0.20;0.20;;;;;;;7.97;79.94;96766.56;5032797;28;20042;-74
2023/12/26 06:22:30;;;;;;;0.28;0.28;;;;;;;7.95;79.94;96776.56;5032830;28;20049;-73
2023/12/26 06:24:58;;;;;;;0.20;0.20;;;;;;;7.97;80.07;96777.19;5033921;28;20064;-74
2023/12/26 06:27:27;;;;;;;0.30;0.30;;;;;;;7.99;79.78;96764.53;5032637;28;21332;-74
2023/12/26 06:29:55;;;;;;;0.22;0.22;;;;;;;7.99;79.96;96788.44;5032703;28;20135;-74
2023/12/26 06:32:22;;;;;;;0.25;0.25;;;;;;;7.99;79.98;96781.25;5032385;28;20567;-74
2023/12/26 06:34:50;;;;;;;0.13;0.13;;;;;;;7.99;80.25;96793.75;5032583;28;20556;-74
2023/12/26 06:37:17;;;;;;;0.30;0.30;;;;;;;7.95;80.28;96781.88;5032450;28;20091;-76
2023/12/26 06:39:45;;;;;;;0.25;0.25;;;;;;;7.98;80.12;96749.59;5025331;28;20586;-74
2023/12/26 06:42:13;;;;;;;0.20;0.20;;;;;;;7.94;80.42;96769.59;5032428;28;20460;-76
2023/12/26 06:44:42;;;;;;;0.20;0.20;;;;;;;7.97;80.66;96785.16;5031667;28;20045;-74
2023/12/26 06:47:12;;;;;;;0.35;0.35;;;;;;;7.96;80.61;96788.84;5032271;28;20049;-73
2023/12/26 06:49:43;;;;;;;0.10;0.10;;;;;;;7.97;80.59;96785.16;5031643;28;20118;-74
2023/12/26 06:52:12;;;;;;;0.20;0.20;;;;;;;7.94;80.52;96789.03;5032391;28;20133;-74
2023/12/26 06:54:40;;;;;;;0.30;0.30;;;;;;;7.93;80.39;96802.50;5032439;28;20041;-72
2023/12/26 06:57:15;;;;;;;0.20;0.20;;;;;;;7.95;80.78;96816.41;5033700;28;20038;-72
2023/12/26 06:59:46;;;;;;;0.20;0.20;;;;;;;7.96;80.65;96810.91;5030292;28;20041;-72
2023/12/26 07:02:14;;;;;;;0.20;0.20;;;;;;;7.95;80.69;96805.78;5032598;28;20069;-73
2023/12/26 07:04:43;;;;;;;0.30;0.30;;;;;;;7.94;80.69;96806.81;5032071;28;20083;-75
2023/12/26 07:07:10;;;;;;;0.30;0.30;;;;;;;7.96;80.68;96818.06;5033458;28;20045;-75
2023/12/26 07:09:38;;;;;;;0.30;0.30;;;;;;;7.92;80.99;96848.69;5033145;28;20409;-72
2023/12/26 07:12:07;;;;;;;0.30;0.30;;;;;;;7.93;80.79;96859.13;5032966;28;20416;-72
2023/12/26 07:14:35;;;;;;;0.30;0.30;;;;;;;7.93;81.15;96855.63;5032989;28;20041;-72
2023/12/26 07:17:04;;;;;;;0.32;0.32;;;;;;;7.94;81.02;96862.59;5031944;28;20429;-72
2023/12/26 07:19:32;;;;;;;0.30;0.30;;;;;;;7.94;81.02;96857.28;5032175;28;20050;-72
2023/12/26 07:22:00;;;;;;;0.20;0.20;;;;;;;8.01;81.22;96860.78;5034947;28;20132;-76
2023/12/26 07:24:28;;;;;;;0.20;0.20;;;;;;;8.00;81.07;96869.78;5028653;28;20053;-72
2023/12/26 07:26:55;;;;;;;0.30;0.30;;;;;;;7.96;81.22;96876.50;5033365;28;20497;-73
2023/12/26 07:29:23;;;;;;;0.30;0.30;;;;;;;7.91;81.35;96866.47;5033257;28;20493;-74
2023/12/26 07:31:52;;;;;;;0.10;0.10;;;;;;;7.89;81.61;96892.41;5033051;28;20045;-73
2023/12/26 07:34:21;;;;;;;0.30;0.30;;;;;;;7.90;81.94;96887.91;5032948;28;20485;-72
2023/12/26 07:36:49;;;;;;;0.30;0.30;;;;;;;7.95;81.69;96898.78;5033064;28;20468;-74
2023/12/26 07:39:17;;;;;;;0.30;0.30;;;;;;;7.96;81.50;96897.78;5025457;28;20049;-73
2023/12/26 07:41:44;;;;;;;0.20;0.20;;;;;;;7.95;81.60;96902.25;5033421;28;20041;-72
2023/12/26 07:44:12;;;;;;;0.28;0.28;;;;;;;7.90;81.59;96894.03;5033354;28;20188;-73
2023/12/26 07:46:39;;;;;;;0.20;0.20;;;;;;;7.95;81.65;96901.44;5028595;28;20488;-73
2023/12/26 07:49:08;;;;;;;0.20;0.20;;;;;;;7.95;81.51;96904.09;5033734;28;20128;-72
2023/12/26 07:51:38;;;;;;;0.30;0.30;;;;;;;7.96;81.57;96901.25;5029186;28;20572;-72
2023/12/26 07:54:06;;;;;;;0.25;0.25;;;;;;;7.94;81.26;96903.28;5032703;28;20120;-73
2023/12/26 07:56:33;;;;;;;0.38;0.38;;;;;;;7.92;81.32;96904.47;5031965;28;20038;-73
2023/12/26 07:59:01;;;;;;;0.30;0.30;;;;;;;7.88;81.80;96903.25;5032491;28;20053;-72
2023/12/26 08:01:28;;;;;;;0.28;0.28;;;;;;;7.91;81.59;96906.31;5032026;28;20041;-72
2023/12/26 08:03:56;;;;;;;0.30;0.30;;;;;;;7.89;81.81;96903.03;5032455;28;20046;-73
2023/12/26 08:06:24;;;;;;;0.15;0.15;;;;;;;7.90;81.29;96909.16;5032409;28;20046;-73
2023/12/26 08:08:53;;;;;;;0.30;0.30;;;;;;;7.88;81.70;96909.38;5032311;28;20044;-73
2023/12/26 08:11:22;;;;;;;0.40;0.40;;;;;;;7.89;81.79;96908.34;5032101;28;20496;-72
2023/12/26 08:13:49;;;;;;;0.40;0.40;;;;;;;7.91;81.00;96906.31;5029538;28;20505;-72
2023/12/26 08:16:17;;;;;;;0.30;0.30;;;;;;;7.88;81.34;96920.00;5028590;28;20046;-73
2023/12/26 08:18:44;;;;;;;0.35;0.35;;;;;;;7.88;81.66;96932.47;5029502;28;20042;-72
2023/12/26 08:21:12;;;;;;;0.20;0.20;;;;;;;7.88;81.51;96921.84;5032309;28;20041;-72
2023/12/26 08:23:40;;;;;;;0.45;0.45;;;;;;;7.97;81.04;96923.31;5032209;28;20125;-73
2023/12/26 08:26:09;;;;;;;0.20;0.20;;;;;;;7.99;81.30;96937.25;5034678;28;20045;-74
2023/12/26 08:28:36;;;;;;;0.38;0.38;;;;;;;7.92;81.25;96933.69;5034254;28;20049;-72
2023/12/26 08:31:04;;;;;;;0.30;0.30;;;;;;;7.93;81.19;96943.31;5029347;28;20221;-73
2023/12/26 08:33:32;;;;;;;0.32;0.32;;;;;;;7.90;81.58;96951.66;5032106;28;20045;-72
2023/12/26 08:35:59;;;;;;;0.22;0.22;;;;;;;7.92;81.61;96958.44;5032376;28;20051;-73
2023/12/26 08:38:28;;;;;;;0.20;0.20;;;;;;;7.92;81.56;96953.13;5031661;28;20072;-72
2023/12/26 08:40:55;;;;;;;0.10;0.10;;;;;;;7.91;82.05;96959.44;5031917;28;20034;-73
2023/12/26 08:43:24;;;;;;;0.20;0.20;;;;;;;7.93;81.61;96973.38;5032800;28;20056;-72
2023/12/26 08:45:51;;;;;;;0.20;0.20;;;;;;;7.92;81.95;96973.56;5031266;28;20046;-73
2023/12/26 08:48:19;;;;;;;0.20;0.20;;;;;;;7.96;81.79;96974.81;5028655;28;20052;-73
2023/12/26 08:50:50;;;;;;;0.20;0.20;;;;;;;7.95;82.02;96966.03;5034526;28;20057;-73
2023/12/26 08:53:18;;;;;;;0.30;0.30;;;;;;;7.90;82.00;96973.75;5034382;28;20060;-72
2023/12/26 08:55:47;;;;;;;0.30;0.30;;;;;;;7.92;82.20;96973.56;5031773;28;20041;-72
2023/12/26 08:58:14;;;;;;;0.20;0.20;;;;;;;7.90;82.05;96970.25;5029494;28;20042;-74
2023/12/26 09:00:45;;;;;;;0.30;0.30;;;;;;;7.88;82.29;96978.44;5022980;28;20041;-72
2023/12/26 09:03:12;;;;;;;0.20;0.20;;;;;;;7.87;82.44;96989.28;5031380;28;20069;-72
2023/12/26 09:05:41;;;;;;;0.30;0.30;;;;;;;7.90;82.08;96996.84;5031467;28;20116;-73
2023/12/26 09:08:09;;;;;;;0.30;0.30;;;;;;;7.90;82.08;96983.53;5031582;28;20045;-73
2023/12/26 09:10:36;;;;;;;0.20;0.20;;;;;;;7.90;82.34;96986.19;5025541;28;20037;-74
2023/12/26 09:13:04;;;;;;;0.15;0.15;;;;;;;7.91;82.02;96993.97;5031765;28;20051;-75
2023/12/26 09:15:32;;;;;;;0.28;0.28;;;;;;;7.94;82.36;97001.59;5031254;28;20128;-72
2023/12/26 09:18:00;;;;;;;0.20;0.20;;;;;;;7.91;82.05;96993.97;5031602;28;20585;-73
2023/12/26 09:20:29;;;;;;;0.20;0.20;;;;;;;7.95;82.15;97005.06;5025363;28;20046;-73
2023/12/26 09:22:56;;;;;;;0.28;0.28;;;;;;;7.93;82.26;97013.22;5032044;28;20107;-73
2023/12/26 09:25:24;;;;;;;0.20;0.20;;;;;;;7.95;82.32;97013.84;5026288;28;20560;-76
2023/12/26 09:27:52;;;;;;;0.40;0.40;;;;;;;7.96;82.47;97020.00;5031496;28;20044;-73
2023/12/26 09:30:19;;;;;;;0.40;0.40;;;;;;;7.98;82.41;97015.31;5031275;28;20053;-73
2023/12/26 09:32:48;;;;;;;0.10;0.10;;;;;;;7.94;82.58;97014.88;5031430;28;20084;-75
2023/12/26 09:35:18;;;;;;;0.10;0.10;;;;;;;7.99;82.49;97017.75;5031648;28;20120;-73
2023/12/26 09:37:45;;;;;;;0.30;0.30;;;;;;;8.01;82.35;97017.56;5030442;28;20140;-75
2023/12/26 09:40:13;;;;;;;0.32;0.32;;;;;;;7.99;82.62;97022.28;5028855;28;20125;-73
2023/12/26 09:42:41;;;;;;;0.30;0.30;;;;;;;8.04;82.00;97033.97;5031136;28;20072;-73
2023/12/26 09:45:11;;;;;;;0.20;0.20;;;;;;;8.04;82.00;97035.78;5031416;28;20442;-73
2023/12/26 09:47:41;;;;;;;0.20;0.20;;;;;;;8.02;82.13;97043.13;5030773;28;20119;-73
2023/12/26 09:50:10;;;;;;;0.20;0.20;;;;;;;8.08;82.13;97045.03;5030908;28;20682;-73
2023/12/26 09:52:40;;;;;;;0.22;0.22;;;;;;;8.09;81.80;97055.47;5031101;28;20452;-75
2023/12/26 09:55:08;;;;;;;0.20;0.20;;;;;;;8.09;81.96;97038.72;5032203;28;20086;-75
2023/12/26 09:57:38;;;;;;;0.20;0.20;;;;;;;8.09;81.90;97055.47;5031921;28;20046;-73
2023/12/26 10:00:07;;;;;;;0.25;0.25;;;;;;;8.07;81.98;97051.34;5032400;28;20041;-73
2023/12/26 10:02:38;;;;;;;0.30;0.30;;;;;;;8.08;82.20;97053.84;5032145;28;20049;-73
2023/12/26 10:05:07;;;;;;;0.30;0.30;;;;;;;8.11;82.10;97053.44;5031338;28;20104;-74
2023/12/26 10:07:34;;;;;;;0.20;0.20;;;;;;;8.16;81.56;97065.31;5033168;28;20046;-73
2023/12/26 10:10:05;;;;;;;0.20;0.20;;;;;;;8.21;81.50;97084.97;5033239;28;20068;-73
2023/12/26 10:12:34;;;;;;;0.30;0.30;;;;;;;8.18;81.91;97074.75;5035446;28;20073;-74
2023/12/26 10:15:03;;;;;;;0.25;0.25;;;;;;;8.16;82.45;97082.09;5035812;28;20059;-73
2023/12/26 10:17:32;;;;;;;0.30;0.30;;;;;;;8.15;82.52;97088.44;5034758;28;20041;-73
2023/12/26 10:20:03;;;;;;;0.13;0.13;;;;;;;8.16;82.14;97084.75;5037983;28;20057;-72
2023/12/26 10:22:31;;;;;;;0.35;0.35;;;;;;;8.26;81.83;97082.59;5034363;28;20037;-74
2023/12/26 10:25:00;;;;;;;0.30;0.30;;;;;;;8.23;81.84;97090.94;5034679;28;20120;-73
2023/12/26 10:27:29;;;;;;;0.20;0.20;;;;;;;8.27;81.59;97105.50;5032615;28;20048;-73
2023/12/26 10:29:57;;;;;;;0.30;0.30;;;;;;;8.28;81.29;97095.69;5034466;28;20452;-75
2023/12/26 10:32:25;;;;;;;0.17;0.17;;;;;;;8.24;81.33;97105.88;5032746;28;20487;-73
2023/12/26 10:34:53;;;;;;;0.20;0.20;;;;;;;8.23;82.05;97108.72;5034354;28;20041;-73
2023/12/26 10:37:22;;;;;;;0.20;0.20;;;;;;;8.17;82.74;97117.47;5034927;28;20041;-74
2023/12/26 10:39:49;;;;;;;0.20;0.20;;;;;;;8.19;82.90;97108.31;5034876;28;20103;-73
2023/12/26 10:42:18;;;;;;;0.30;0.30;;;;;;;8.19;82.73;97107.47;5042083;28;20046;-73
2023/12/26 10:44:47;;;;;;;0.30;0.30;;;;;;;8.19;81.94;97089.69;5042244;28;20059;-73
2023/12/26 10:47:15;;;;;;;0.30;0.30;;;;;;;8.20;81.97;97103.81;5037246;28;20049;-73
2023/12/26 10:49:43;;;;;;;0.35;0.35;;;;;;;8.22;81.52;97104.41;5033934;28;20076;-75
2023/12/26 10:52:12;;;;;;;0.32;0.32;;;;;;;8.25;81.60;97123.47;5032900;28;20057;-74
2023/12/26 10:54:40;;;;;;;0.30;0.30;;;;;;;8.30;80.87;97120.25;5033737;28;20121;-73
2023/12/26 10:57:08;;;;;;;0.20;0.20;;;;;;;8.22;81.43;97128.34;5034537;28;20049;-73
2023/12/26 10:59:36;;;;;;;0.30;0.30;;;;;;;8.29;82.19;97140.69;5033723;28;20103;-73
2023/12/26 11:02:04;;;;;;;0.40;0.40;;;;;;;8.28;82.54;97140.88;5033947;28;20049;-73
2023/12/26 11:04:42;;;;;;;0.50;0.50;;;;;;;8.26;83.11;97134.94;5033358;28;20049;-74
2023/12/26 11:07:09;;;;;;;0.30;0.30;;;;;;;8.27;83.46;97132.09;5033670;28;20116;-73
2023/12/26 11:09:36;;;;;;;0.17;0.17;;;;;;;8.27;83.49;97136.59;5033104;28;20386;-74
2023/12/26 11:12:04;;;;;;;0.30;0.30;;;;;;;8.27;83.50;97137.41;5033253;28;20049;-74
2023/12/26 11:14:30;;;;;;;0.43;0.43;;;;;;;8.33;82.87;97126.03;5033148;28;20460;-74
2023/12/26 11:16:57;;;;;;;0.30;0.30;;;;;;;8.44;82.44;97114.03;5033369;28;20456;-74
2023/12/26 11:19:26;;;;;;;0.32;0.32;;;;;;;8.36;82.53;97114.19;5033309;28;20440;-74
2023/12/26 11:21:53;;;;;;;0.10;0.10;;;;;;;8.37;81.83;97119.31;5032879;28;20049;-74
2023/12/26 11:24:20;;;;;;;0.30;0.30;;;;;;;8.38;81.67;97110.34;5033137;28;20049;-74
2023/12/26 11:26:48;;;;;;;0.20;0.20;;;;;;;8.35;81.86;97116.03;5024732;28;20451;-74
2023/12/26 11:29:15;;;;;;;0.30;0.30;;;;;;;8.35;81.84;97108.03;5032601;28;20092;-74
2023/12/26 11:31:42;;;;;;;0.20;0.20;;;;;;;8.35;81.78;97118.69;5032026;28;20140;-74
2023/12/26 11:34:11;;;;;;;0.20;0.20;;;;;;;8.36;82.23;97115.00;5032783;28;20047;-75
2023/12/26 11:36:41;;;;;;;0.20;0.20;;;;;;;8.33;82.24;97123.38;5032762;28;20041;-75
2023/12/26 11:39:13;;;;;;;0.20;0.20;;;;;;;8.31;82.44;97116.56;5032784;28;20120;-74
2023/12/26 11:41:39;;;;;;;0.30;0.30;;;;;;;8.38;82.13;97113.00;5032766;28;20456;-74
2023/12/26 11:44:06;;;;;;;0.30;0.30;;;;;;;8.34;82.31;97118.88;5025014;28;20056;-74
2023/12/26 11:46:34;;;;;;;0.10;0.10;;;;;;;8.35;82.35;97115.19;5031023;28;20128;-77